Miami, FL (33170)

10:38 AM EDT on June 03, 2015 (GMT -0400)
Miami Everglades RV Resort | | Change Station
CLOSE
Current Station
Personal Weather Station
Location: Miami, FL
Elevation: 10 ft
Nearby Weather Stations

Elev 10 ft 25.58 °N, 80.45 °W | Updated 48 minutes ago

Clear
Clear
84.7 °F
Feels Like 92 °F
N
11.5
Wind Variable Wind from East
Gusts 11.5 mph

Today
High -- | Low -- °F
--% Chance of Precip.
Yesterday
High -- | Low -- °F
Precip. -- in
6:30 AM 8:09 PM
Full, 99% visible
Pressure 29.94 in
Visibility 10.0 miles
Clouds Few 2900 ft
Heat Index 92 °F
Dew Point 73 °F
Humidity 69%
Rainfall 0.00 in
Snow Depth Not available.
UV 7 out of 12
Pollen .50 out of 12
Air Quality Not available.
Flu Activity Sporadic
METAR KTMB 031353Z 06007KT 10SM FEW029 27/21 A2994 RMK AO2 SLP139 T02720206

More Conditions Fewer Conditions

Pressure 29.94 in
Visibility 10.0 miles
Clouds Few 2900 ft
Heat Index 92 °F
Dew Point 73 °F
Humidity 69%
Rainfall 0.00 in
Snow Depth Not available.
UV 7 out of 12
Pollen .50 out of 12
Air Quality Not available.
Flu Activity Sporadic
METAR KTMB 031353Z 06007KT 10SM FEW029 27/21 A2994 RMK AO2 SLP139 T02720206

More Conditions Fewer Conditions

10-Day Weather Forecast

×

Almanac

Astronomy

Jun. 03, 2015 Rise Set
Actual Time
Civil Twilight
Nautical Twilight
Astronomical Twilight
Moon
Length of Visible Light
Length of Day
Tomorrow will be .
, % of the Moon is Illuminated

Today's Extremes

State Highs State Lows

Community

WunderPhotos

Upload Photos

1,826,229 photos uploaded!

WunderBlogs® & News

Nearby

Air Quality

  Air Quality AQ Index Pollutant
Not available.

Snow Depth

Station Depth Elevation

Earthquake Activity

City Distance Mag. Time & Date
Minimum magnitude displayed is 2.5.

Coastal Water Temperatures

Place Temperature

Stations

Nearby Weather Stations

Station Location Temp. Windchill Dew Point Humidity Wind Precip. Elev Updated Type